Time;durP1;ratioP1;P1;durP2;ratioP2;P2;SDS_P1;SDS_P2;PMS_P1;PMS_P2;Temp;Humidity;BMP_temperature;BMP_pressure;BME280_temperature;BME280_humidity;BME280_pressure;Samples;Min_cycle;Max_cycle;Signal;HPM_P1;HPM_P2
2024/01/08 00:01:24;;;;;;;7.75;3.65;;;;;;;-1.64;100.00;102711.00;6228793;28;20339;-72
2024/01/08 00:04:26;;;;;;;6.75;3.13;;;;;;;-1.68;100.00;102718.59;6228698;28;20046;-72
2024/01/08 00:07:27;;;;;;;7.47;3.60;;;;;;;-1.63;100.00;102717.06;6224447;28;20053;-73
2024/01/08 00:10:30;;;;;;;7.78;3.67;;;;;;;-1.60;100.00;102720.56;6215211;28;20053;-72
2024/01/08 00:13:31;;;;;;;7.82;4.53;;;;;;;-1.58;100.00;102721.50;6222356;28;20057;-72
2024/01/08 00:16:32;;;;;;;9.27;3.83;;;;;;;-1.63;100.00;102724.81;6223452;28;20453;-73
2024/01/08 00:19:33;;;;;;;6.72;3.60;;;;;;;-1.69;100.00;102720.31;6228364;28;20141;-72
2024/01/08 00:22:35;;;;;;;11.40;4.90;;;;;;;-1.65;100.00;102718.72;6219143;28;20327;-73
2024/01/08 00:25:37;;;;;;;11.18;4.55;;;;;;;-1.58;100.00;102725.81;6223590;28;20054;-72
2024/01/08 00:28:39;;;;;;;10.40;3.83;;;;;;;-1.67;100.00;102717.81;6228379;28;20046;-73
2024/01/08 00:31:40;;;;;;;7.32;3.85;;;;;;;-1.64;100.00;102717.88;6228068;28;20465;-72
2024/01/08 00:34:42;;;;;;;13.18;4.05;;;;;;;-1.62;100.00;102721.38;6228161;28;20053;-72
2024/01/08 00:37:43;;;;;;;10.75;3.88;;;;;;;-1.68;100.00;102724.66;6227812;28;20050;-72
2024/01/08 00:40:46;;;;;;;4.53;2.95;;;;;;;-1.57;100.00;102720.69;6227494;28;20050;-73
2024/01/08 00:43:48;;;;;;;7.00;3.65;;;;;;;-1.58;100.00;102726.66;6227772;28;20058;-72
2024/01/08 00:46:50;;;;;;;9.32;4.00;;;;;;;-1.56;100.00;102725.00;6227098;28;20527;-73
2024/01/08 00:49:51;;;;;;;13.57;4.18;;;;;;;-1.59;100.00;102724.03;6227816;28;20057;-73
2024/01/08 00:52:52;;;;;;;9.65;4.63;;;;;;;-1.58;100.00;102720.66;6227679;28;20061;-73
2024/01/08 00:55:55;;;;;;;12.85;3.92;;;;;;;-1.59;100.00;102731.75;6227474;28;20453;-74
2024/01/08 00:58:56;;;;;;;10.98;3.95;;;;;;;-1.53;100.00;102726.81;6227637;28;20045;-73
2024/01/08 01:01:58;;;;;;;10.93;4.30;;;;;;;-1.60;100.00;102727.44;6227572;28;20430;-73
2024/01/08 01:04:59;;;;;;;11.38;4.32;;;;;;;-1.58;100.00;102725.81;6226234;28;20354;-73
2024/01/08 01:08:00;;;;;;;8.40;3.95;;;;;;;-1.56;100.00;102729.28;6227224;28;20458;-73
2024/01/08 01:11:03;;;;;;;12.77;3.75;;;;;;;-1.53;100.00;102729.38;6227317;28;20053;-73
2024/01/08 01:14:05;;;;;;;11.07;4.57;;;;;;;-1.52;100.00;102730.25;6227271;28;20053;-73
2024/01/08 01:17:06;;;;;;;12.25;4.30;;;;;;;-1.59;100.00;102735.25;6226679;28;20064;-73
2024/01/08 01:20:08;;;;;;;14.27;4.15;;;;;;;-1.62;100.00;102737.72;6227076;28;20052;-73
2024/01/08 01:23:10;;;;;;;10.30;3.85;;;;;;;-1.57;100.00;102733.56;6226914;28;20060;-72
2024/01/08 01:26:12;;;;;;;10.48;4.25;;;;;;;-1.55;100.00;102742.19;6226471;28;20057;-72
2024/01/08 01:29:14;;;;;;;10.50;4.53;;;;;;;-1.46;100.00;102751.91;6226908;28;20449;-74
2024/01/08 01:32:15;;;;;;;8.98;5.15;;;;;;;-1.47;100.00;102752.75;6226622;28;20053;-72
2024/01/08 01:35:16;;;;;;;10.25;3.90;;;;;;;-1.48;100.00;102751.00;6226796;28;20054;-72
2024/01/08 01:38:18;;;;;;;7.75;4.43;;;;;;;-1.48;100.00;102747.56;6226992;28;20057;-74
2024/01/08 01:41:20;;;;;;;12.90;4.05;;;;;;;-1.51;100.00;102755.19;6226936;28;20465;-72
2024/01/08 01:44:22;;;;;;;12.55;4.57;;;;;;;-1.54;100.00;102748.25;6226904;28;20054;-72
2024/01/08 01:47:24;;;;;;;9.40;4.32;;;;;;;-1.41;100.00;102749.47;6225981;28;20568;-72
2024/01/08 01:50:25;;;;;;;12.48;4.50;;;;;;;-1.45;100.00;102753.69;6226319;28;20492;-72
2024/01/08 01:53:28;;;;;;;8.25;3.03;;;;;;;-1.48;100.00;102751.00;6194721;28;20054;-72
2024/01/08 01:56:30;;;;;;;9.38;4.13;;;;;;;-1.44;100.00;102754.53;6187991;28;20062;-72
2024/01/08 01:59:33;;;;;;;13.73;4.32;;;;;;;-1.50;100.00;102757.81;6188086;28;20050;-74
2024/01/08 02:02:34;;;;;;;10.52;4.68;;;;;;;-1.52;100.00;102763.75;6190050;28;20042;-74
2024/01/08 02:05:36;;;;;;;9.73;3.85;;;;;;;-1.44;100.00;102754.53;6186841;28;20427;-79
2024/01/08 02:08:38;;;;;;;10.63;4.40;;;;;;;-1.45;100.00;102755.34;6195306;28;20053;-79
2024/01/08 02:11:41;;;;;;;7.53;4.35;;;;;;;-1.43;100.00;102748.56;6202406;28;20331;-78
2024/01/08 02:14:42;;;;;;;15.55;4.05;;;;;;;-1.56;100.00;102755.94;6204401;28;20053;-78
2024/01/08 02:17:43;;;;;;;6.05;3.17;;;;;;;-1.43;100.00;102753.72;6189812;28;20050;-79
2024/01/08 02:20:45;;;;;;;8.43;3.78;;;;;;;-1.48;100.00;102755.28;6201292;28;20177;-79
2024/01/08 02:23:47;;;;;;;11.57;4.38;;;;;;;-1.46;100.00;102758.78;6194196;28;20047;-78
2024/01/08 02:26:49;;;;;;;5.20;2.90;;;;;;;-1.41;100.00;102749.47;6201163;28;20050;-79
2024/01/08 02:29:50;;;;;;;8.98;3.15;;;;;;;-1.33;100.00;102745.41;6201440;28;20487;-79
2024/01/08 02:32:51;;;;;;;7.93;3.65;;;;;;;-1.35;100.00;102747.06;6201263;28;20050;-78
2024/01/08 02:35:54;;;;;;;9.95;3.90;;;;;;;-1.36;100.00;102753.06;6201203;28;20050;-79
2024/01/08 02:38:56;;;;;;;8.40;4.10;;;;;;;-1.35;100.00;102759.97;6201487;28;20046;-79
2024/01/08 02:41:58;;;;;;;6.10;3.30;;;;;;;-1.34;100.00;102760.00;6201399;28;20065;-79
2024/01/08 02:45:00;;;;;;;8.05;3.47;;;;;;;-1.36;100.00;102756.50;6200909;28;20057;-78
2024/01/08 02:48:01;;;;;;;10.65;3.55;;;;;;;-1.29;100.00;102766.16;6201378;28;20104;-78
2024/01/08 02:51:03;;;;;;;9.13;3.90;;;;;;;-1.28;100.00;102762.72;6215767;23;20046;-72
2024/01/08 02:54:06;;;;;;;9.55;3.63;;;;;;;-1.33;100.00;102774.63;6200952;28;20069;-71
2024/01/08 02:57:07;;;;;;;8.77;3.63;;;;;;;-1.24;100.00;102765.41;6200725;28;20336;-73
2024/01/08 03:00:09;;;;;;;6.50;3.38;;;;;;;-1.32;100.00;102767.75;6200936;28;20351;-72
2024/01/08 03:03:11;;;;;;;7.18;3.58;;;;;;;-1.20;100.00;102767.25;6200981;28;20367;-73
2024/01/08 03:06:12;;;;;;;8.73;3.80;;;;;;;-1.23;100.00;102773.19;6200626;28;20058;-73
2024/01/08 03:09:15;;;;;;;8.93;3.47;;;;;;;-1.26;100.00;102774.81;6201222;28;20054;-73
2024/01/08 03:12:17;;;;;;;9.85;3.00;;;;;;;-1.17;100.00;102773.38;6200818;28;20057;-72
2024/01/08 03:15:18;;;;;;;8.20;3.40;;;;;;;-1.27;100.00;102779.13;6200225;28;20050;-72
2024/01/08 03:18:19;;;;;;;12.05;3.67;;;;;;;-1.29;100.00;102771.31;6201275;28;20053;-71
2024/01/08 03:21:21;;;;;;;6.72;3.05;;;;;;;-1.35;100.00;102775.44;6200902;28;20050;-72
2024/01/08 03:24:23;;;;;;;9.25;3.97;;;;;;;-1.30;100.00;102773.84;6200932;28;20058;-72
2024/01/08 03:27:25;;;;;;;6.22;3.10;;;;;;;-1.30;100.00;102772.16;6200207;28;20351;-72
2024/01/08 03:30:26;;;;;;;8.85;3.55;;;;;;;-1.30;100.00;102769.56;6201771;28;20057;-72
2024/01/08 03:33:28;;;;;;;7.32;3.08;;;;;;;-1.37;100.00;102774.50;6190037;28;20050;-72
2024/01/08 03:36:29;;;;;;;8.30;3.70;;;;;;;-1.32;100.00;102776.41;6198987;28;20130;-72
2024/01/08 03:39:32;;;;;;;8.02;3.75;;;;;;;-1.34;100.00;102778.06;6180980;28;20047;-72
2024/01/08 03:42:33;;;;;;;13.70;3.80;;;;;;;-1.35;100.00;102778.88;6180744;28;20367;-72
2024/01/08 03:45:35;;;;;;;7.50;4.22;;;;;;;-1.43;100.00;102775.22;6182585;28;20054;-73
2024/01/08 03:48:36;;;;;;;7.85;3.13;;;;;;;-1.38;100.00;102776.22;6181032;28;20051;-71
2024/01/08 03:51:37;;;;;;;7.93;3.65;;;;;;;-1.35;100.00;102778.88;6198572;28;20363;-72
2024/01/08 03:54:40;;;;;;;6.57;2.83;;;;;;;-1.45;100.00;102773.41;6204734;28;20054;-72
2024/01/08 03:57:41;;;;;;;7.85;3.67;;;;;;;-1.40;100.00;102771.84;6204276;28;20055;-71
2024/01/08 04:00:43;;;;;;;8.68;3.28;;;;;;;-1.44;100.00;102780.34;6203898;28;20053;-73
2024/01/08 04:03:44;;;;;;;10.55;4.40;;;;;;;-1.39;100.00;102784.78;6203973;28;20054;-72
2024/01/08 04:06:46;;;;;;;10.98;4.05;;;;;;;-1.39;100.00;102783.91;6203986;28;20054;-71
2024/01/08 04:09:49;;;;;;;8.18;3.22;;;;;;;-1.43;100.00;102784.66;6206262;28;20140;-72
2024/01/08 04:12:50;;;;;;;9.18;3.72;;;;;;;-1.36;100.00;102787.47;6218745;28;20455;-72
2024/01/08 04:15:52;;;;;;;11.88;3.95;;;;;;;-1.26;100.00;102795.47;6222071;28;20361;-73
2024/01/08 04:18:53;;;;;;;8.88;3.20;;;;;;;-1.42;100.00;102784.69;6229904;28;20056;-72
2024/01/08 04:21:54;;;;;;;7.90;3.95;;;;;;;-1.33;100.00;102791.81;6227174;28;20049;-72
2024/01/08 04:24:57;;;;;;;5.97;3.00;;;;;;;-1.35;100.00;102796.06;6219727;28;20049;-72
2024/01/08 04:27:58;;;;;;;6.97;2.83;;;;;;;-1.29;100.00;102786.78;6228179;28;20637;-74
2024/01/08 04:31:00;;;;;;;6.45;3.70;;;;;;;-1.35;100.00;102793.50;6228063;28;20050;-73
2024/01/08 04:34:01;;;;;;;12.38;4.85;;;;;;;-1.19;100.00;102789.63;6218073;28;20047;-73
2024/01/08 04:37:03;;;;;;;8.25;3.35;;;;;;;-1.22;100.00;102789.56;6202626;28;20489;-73
2024/01/08 04:40:07;;;;;;;13.45;4.18;;;;;;;-1.20;100.00;102793.91;6203882;28;20244;-73
2024/01/08 04:43:08;;;;;;;8.93;4.13;;;;;;;-1.26;100.00;102795.47;6203501;28;20507;-73
2024/01/08 04:46:10;;;;;;;6.80;3.05;;;;;;;-1.24;100.00;102796.38;6202429;28;20053;-72
2024/01/08 04:49:11;;;;;;;10.18;4.07;;;;;;;-1.32;100.00;102802.19;6203518;28;20344;-71
2024/01/08 04:52:12;;;;;;;15.93;4.90;;;;;;;-1.35;100.00;102798.66;6202974;28;20050;-71
2024/01/08 04:55:15;;;;;;;6.97;3.50;;;;;;;-1.26;100.00;102803.19;6202613;28;20057;-72
2024/01/08 04:58:16;;;;;;;9.07;3.63;;;;;;;-1.20;100.00;102811.09;6203112;28;20049;-72
2024/01/08 05:01:18;;;;;;;5.00;2.38;;;;;;;-1.19;100.00;102810.25;6203144;28;20058;-72
2024/01/08 05:04:19;;;;;;;9.48;3.05;;;;;;;-1.18;100.00;102810.31;6202917;28;20050;-72
2024/01/08 05:07:20;;;;;;;6.78;1.92;;;;;;;-1.22;100.00;102816.22;6202572;28;20058;-71
2024/01/08 05:10:23;;;;;;;4.38;2.30;;;;;;;-1.23;100.00;102814.44;6203048;28;20434;-71
2024/01/08 05:13:25;;;;;;;3.10;1.85;;;;;;;-1.18;100.00;102814.59;6203322;28;20062;-71
2024/01/08 05:16:27;;;;;;;6.07;2.50;;;;;;;-1.23;100.00;102813.59;6202439;28;20046;-72
2024/01/08 05:19:28;;;;;;;2.90;1.77;;;;;;;-1.12;100.00;102820.81;6202683;28;20378;-72
2024/01/08 05:22:29;;;;;;;2.88;1.92;;;;;;;-1.14;100.00;102821.56;6202599;28;20057;-72
2024/01/08 05:25:34;;;;;;;3.22;1.77;;;;;;;-1.13;100.00;102821.66;6209939;28;20045;-72
2024/01/08 05:28:35;;;;;;;2.53;1.75;;;;;;;-1.15;100.00;102831.03;6201624;28;20100;-72
2024/01/08 05:31:37;;;;;;;3.38;2.22;;;;;;;-1.16;100.00;102829.28;6211694;28;20046;-72
2024/01/08 05:34:38;;;;;;;3.75;2.25;;;;;;;-1.08;100.00;102825.22;6214117;28;20362;-73
2024/01/08 05:37:39;;;;;;;3.45;2.08;;;;;;;-1.07;100.00;102832.13;6212997;28;20046;-72
2024/01/08 05:40:42;;;;;;;4.35;2.65;;;;;;;-0.99;100.00;102831.47;6213377;28;20358;-73
2024/01/08 05:43:43;;;;;;;5.68;2.30;;;;;;;-1.01;100.00;102828.84;6214012;28;20046;-71
2024/01/08 05:46:45;;;;;;;4.05;2.53;;;;;;;-0.98;100.00;102833.22;6214530;28;20054;-72
2024/01/08 05:49:47;;;;;;;4.53;1.92;;;;;;;-0.99;100.00;102837.50;6226336;28;20096;-71
2024/01/08 05:52:48;;;;;;;4.10;2.15;;;;;;;-1.00;100.00;102833.16;6225647;28;20453;-72
2024/01/08 05:55:51;;;;;;;4.88;1.60;;;;;;;-1.02;100.00;102835.72;6226024;28;20057;-72
2024/01/08 05:58:52;;;;;;;3.67;1.80;;;;;;;-0.95;100.00;102839.34;6226317;28;20346;-72
2024/01/08 06:01:53;;;;;;;3.67;2.28;;;;;;;-1.03;100.00;102838.25;6226639;28;20046;-72
2024/01/08 06:04:54;;;;;;;3.50;1.73;;;;;;;-0.97;100.00;102846.16;6225884;28;20053;-72
2024/01/08 06:07:56;;;;;;;8.20;2.35;;;;;;;-1.10;100.00;102844.94;6223252;28;20050;-72
2024/01/08 06:10:59;;;;;;;4.43;2.08;;;;;;;-1.15;100.00;102848.22;6210292;28;20312;-73
2024/01/08 06:14:00;;;;;;;5.82;2.92;;;;;;;-1.03;100.00;102848.56;6204046;28;20069;-72
2024/01/08 06:17:01;;;;;;;4.18;2.80;;;;;;;-1.00;100.00;102853.78;6214926;28;20331;-73
2024/01/08 06:20:03;;;;;;;6.13;2.63;;;;;;;-1.08;100.00;102857.91;6211928;28;20037;-70
2024/01/08 06:23:04;;;;;;;4.53;2.50;;;;;;;-1.09;100.00;102862.19;6217630;28;20045;-73
2024/01/08 06:26:07;;;;;;;5.07;2.60;;;;;;;-1.09;100.00;102869.91;6222736;28;20547;-72
2024/01/08 06:29:08;;;;;;;3.53;2.00;;;;;;;-1.14;100.00;102866.31;6217570;28;20327;-71
2024/01/08 06:32:10;;;;;;;4.28;2.08;;;;;;;-1.09;100.00;102872.50;6225529;28;20066;-72
2024/01/08 06:35:11;;;;;;;7.25;1.80;;;;;;;-1.08;100.00;102875.94;6225444;28;20466;-73
2024/01/08 06:38:13;;;;;;;3.03;1.98;;;;;;;-1.25;100.00;102883.19;6212732;28;20050;-72
2024/01/08 06:41:15;;;;;;;5.80;2.05;;;;;;;-1.24;100.00;102872.03;6217671;28;20046;-72
2024/01/08 06:44:17;;;;;;;3.53;1.70;;;;;;;-1.32;100.00;102879.56;6209299;28;20082;-71
2024/01/08 06:47:18;;;;;;;3.08;1.70;;;;;;;-1.34;100.00;102885.50;6211784;28;20328;-71
2024/01/08 06:50:19;;;;;;;2.97;1.85;;;;;;;-1.32;100.00;102892.47;6213084;28;20049;-72
2024/01/08 06:53:21;;;;;;;7.45;2.25;;;;;;;-1.32;100.00;102889.88;6205396;28;20053;-71
2024/01/08 06:56:23;;;;;;;5.18;2.00;;;;;;;-1.38;100.00;102891.38;6216154;28;20434;-71
2024/01/08 06:59:25;;;;;;;4.97;2.55;;;;;;;-1.35;100.00;102912.13;6218766;28;20054;-72
2024/01/08 07:02:26;;;;;;;4.70;2.25;;;;;;;-1.47;100.00;102912.59;6225394;28;20068;-72
2024/01/08 07:05:27;;;;;;;7.40;2.55;;;;;;;-1.45;100.00;102917.78;6229161;28;20049;-72
2024/01/08 07:08:29;;;;;;;4.55;2.50;;;;;;;-1.53;100.00;102920.16;6229777;28;20362;-72
2024/01/08 07:11:31;;;;;;;3.38;1.90;;;;;;;-1.67;100.00;102918.84;6230132;28;20061;-72
2024/01/08 07:14:33;;;;;;;4.10;1.80;;;;;;;-1.62;100.00;102925.91;6230083;28;20060;-72
2024/01/08 07:17:34;;;;;;;4.70;1.88;;;;;;;-1.59;100.00;102930.25;6229667;28;20180;-74
2024/01/08 07:20:36;;;;;;;3.17;1.95;;;;;;;-1.70;100.00;102932.50;6229647;28;20370;-72
2024/01/08 07:23:38;;;;;;;6.50;2.85;;;;;;;-1.73;100.00;102932.38;6229668;28;20128;-72
2024/01/08 07:26:40;;;;;;;4.38;2.30;;;;;;;-1.74;100.00;102940.09;6229288;28;20049;-73
2024/01/08 07:29:42;;;;;;;5.47;2.17;;;;;;;-1.72;100.00;102941.03;6229459;28;20053;-72
2024/01/08 07:32:43;;;;;;;5.35;2.10;;;;;;;-1.74;100.00;102948.69;6229153;28;20350;-73
2024/01/08 07:35:44;;;;;;;4.88;2.10;;;;;;;-1.72;100.00;102947.06;6228942;28;20057;-72
2024/01/08 07:38:46;;;;;;;6.32;2.10;;;;;;;-1.70;100.00;102955.69;6229382;28;20058;-72
2024/01/08 07:41:49;;;;;;;3.97;2.22;;;;;;;-1.90;100.00;102949.91;6229664;28;20057;-72
2024/01/08 07:44:50;;;;;;;4.55;2.42;;;;;;;-1.88;100.00;102961.13;6218943;28;20081;-73
2024/01/08 07:47:52;;;;;;;5.63;2.42;;;;;;;-2.11;100.00;102960.34;6211318;28;20046;-72
2024/01/08 07:50:55;;;;;;;5.38;2.25;;;;;;;-2.16;100.00;102963.59;6217456;28;20365;-73
2024/01/08 07:53:56;;;;;;;4.97;2.22;;;;;;;-2.07;100.00;102964.78;6214295;28;20442;-73
2024/01/08 07:56:59;;;;;;;4.57;2.05;;;;;;;-2.00;100.00;102972.69;6214961;28;20054;-72
2024/01/08 08:00:00;;;;;;;5.55;2.20;;;;;;;-2.01;100.00;102973.53;6195482;28;20043;-73
2024/01/08 08:03:03;;;;;;;4.63;2.38;;;;;;;-2.06;100.00;102981.09;6196762;28;20431;-72
2024/01/08 08:06:05;;;;;;;6.00;2.53;;;;;;;-2.04;100.00;102976.91;6199688;28;20062;-73
2024/01/08 08:09:06;;;;;;;9.02;3.03;;;;;;;-2.02;100.00;102984.66;6210578;28;20443;-72
2024/01/08 08:12:09;;;;;;;3.28;2.00;;;;;;;-2.09;100.00;102991.28;6211661;28;20046;-73
2024/01/08 08:15:11;;;;;;;9.50;4.20;;;;;;;-2.10;100.00;102993.00;6217116;28;20050;-72
2024/01/08 08:18:13;;;;;;;8.63;3.38;;;;;;;-2.13;100.00;102998.06;6219506;28;20402;-72
2024/01/08 08:21:15;;;;;;;9.18;3.42;;;;;;;-2.05;100.00;103000.88;6228582;28;20053;-72
2024/01/08 08:24:16;;;;;;;4.85;2.40;;;;;;;-1.95;100.00;103008.13;6228380;28;20061;-72
2024/01/08 08:27:19;;;;;;;7.85;3.15;;;;;;;-2.00;100.00;103013.91;6213118;28;20058;-71
2024/01/08 08:30:22;;;;;;;10.98;2.90;;;;;;;-2.00;100.00;103022.53;6213712;28;20363;-71
2024/01/08 08:33:23;;;;;;;5.93;2.40;;;;;;;-1.94;100.00;103022.75;6208019;28;20085;-73
2024/01/08 08:36:25;;;;;;;5.65;2.63;;;;;;;-2.00;100.00;103030.25;6206988;28;20436;-73
2024/01/08 08:39:26;;;;;;;11.13;2.58;;;;;;;-1.99;100.00;103032.03;6219026;28;20042;-72
2024/01/08 08:42:29;;;;;;;5.88;2.63;;;;;;;-1.98;100.00;103035.47;6222161;28;20050;-72
2024/01/08 08:45:30;;;;;;;7.15;2.80;;;;;;;-1.89;100.00;103043.53;6221162;28;20061;-73
2024/01/08 08:48:32;;;;;;;10.55;3.08;;;;;;;-1.89;100.00;103048.69;6221267;28;20343;-73
2024/01/08 08:51:33;;;;;;;7.32;2.42;;;;;;;-2.09;100.00;103055.69;6229502;22;20042;-78
2024/01/08 08:54:34;;;;;;;4.32;2.03;;;;;;;-2.14;100.00;103060.66;6209776;28;20513;-79
2024/01/08 08:57:38;;;;;;;6.32;3.00;;;;;;;-2.17;100.00;103058.00;6238261;28;20056;-79
2024/01/08 09:00:40;;;;;;;5.28;1.92;;;;;;;-2.10;100.00;103061.66;6240432;28;20046;-78
2024/01/08 09:03:43;;;;;;;5.13;2.53;;;;;;;-2.18;100.00;103064.00;6220512;28;20053;-78
2024/01/08 09:06:45;;;;;;;4.45;2.15;;;;;;;-2.30;100.00;103060.97;6226311;28;20052;-78
2024/01/08 09:09:47;;;;;;;5.53;2.10;;;;;;;-2.32;100.00;103083.19;6178822;28;20054;-79
2024/01/08 09:12:49;;;;;;;6.95;1.65;;;;;;;-2.35;100.00;103083.09;6179921;28;20047;-80
2024/01/08 09:15:51;;;;;;;4.25;2.28;;;;;;;-2.41;100.00;103082.84;6217393;28;20053;-78
2024/01/08 09:18:52;;;;;;;3.97;1.55;;;;;;;-2.48;100.00;103086.00;6221934;28;20050;-78
2024/01/08 09:21:54;;;;;;;4.15;2.00;;;;;;;-2.52;100.00;103081.56;6218641;28;20073;-78
2024/01/08 09:24:55;;;;;;;2.78;1.45;;;;;;;-2.42;100.00;103089.69;6205969;28;20434;-77
2024/01/08 09:27:58;;;;;;;6.88;1.60;;;;;;;-2.42;100.00;103093.97;6213671;28;20042;-79
2024/01/08 09:31:00;;;;;;;4.43;1.38;;;;;;;-2.54;100.00;103094.38;6215206;28;20041;-78
2024/01/08 09:34:02;;;;;;;5.32;2.00;;;;;;;-2.54;100.00;103096.97;6226310;28;20042;-78
2024/01/08 09:37:04;;;;;;;6.20;1.73;;;;;;;-2.44;100.00;103104.22;6226083;28;20165;-78
2024/01/08 09:40:06;;;;;;;4.47;1.83;;;;;;;-2.34;100.00;103103.72;6226398;28;20446;-79
2024/01/08 09:43:09;;;;;;;8.77;1.77;;;;;;;-2.44;100.00;103106.78;6226493;28;20055;-78
2024/01/08 09:46:15;;;;;;;3.60;1.60;;;;;;;-2.39;100.00;103117.25;6225902;28;20084;-78
2024/01/08 09:49:20;;;;;;;2.90;1.80;;;;;;;-2.52;100.00;103115.03;6226274;28;20358;-79
2024/01/08 09:52:22;;;;;;;3.42;1.75;;;;;;;-2.48;100.00;103120.34;6225797;28;20049;-78
2024/01/08 09:55:25;;;;;;;5.78;2.38;;;;;;;-2.44;100.00;103122.22;6225860;28;20072;-79
2024/01/08 09:58:27;;;;;;;1.70;1.40;;;;;;;-2.52;100.00;103125.31;6215463;28;20130;-77
2024/01/08 10:01:29;;;;;;;3.50;1.80;;;;;;;-2.56;100.00;103124.31;6196104;28;20050;-78
2024/01/08 10:04:31;;;;;;;2.80;1.75;;;;;;;-2.50;100.00;103121.09;6201778;28;20054;-77
2024/01/08 10:07:34;;;;;;;5.47;2.65;;;;;;;-2.37;100.00;103120.75;6200982;28;20057;-77
2024/01/08 10:10:35;;;;;;;3.03;1.38;;;;;;;-2.48;100.00;103129.78;6201807;28;20129;-77
2024/01/08 10:13:39;;;;;;;5.88;1.98;;;;;;;-2.35;100.00;103117.44;6201391;28;20058;-78
2024/01/08 10:16:41;;;;;;;3.13;1.85;;;;;;;-2.34;100.00;103126.03;6201282;28;20058;-78
2024/01/08 10:19:42;;;;;;;3.58;1.85;;;;;;;-2.33;100.00;103122.63;6177455;28;20062;-78
2024/01/08 10:22:45;;;;;;;2.70;1.75;;;;;;;-2.31;100.00;103124.44;6177539;28;20054;-78
2024/01/08 10:25:51;;;;;;;3.20;2.03;;;;;;;-2.31;100.00;103116.72;6177009;28;20189;-78
2024/01/08 10:28:53;;;;;;;7.32;2.10;;;;;;;-2.22;100.00;103117.91;6192908;28;20493;-78
2024/01/08 10:31:55;;;;;;;2.83;1.92;;;;;;;-2.16;100.00;103116.41;6213945;28;20042;-77
2024/01/08 10:34:56;;;;;;;2.38;1.25;;;;;;;-2.15;100.00;103113.00;6225502;28;20052;-77
2024/01/08 10:37:59;;;;;;;3.67;1.50;;;;;;;-2.03;100.00;103111.72;6227378;28;20176;-76
2024/01/08 10:41:01;;;;;;;3.70;1.95;;;;;;;-1.99;100.00;103111.91;6216504;28;20125;-76
2024/01/08 10:44:04;;;;;;;3.80;1.60;;;;;;;-1.98;100.00;103111.06;6198814;28;20070;-76
2024/01/08 10:47:08;;;;;;;6.22;2.15;;;;;;;-2.01;100.00;103104.91;6190821;28;20103;-76
2024/01/08 10:50:11;;;;;;;3.65;1.85;;;;;;;-1.95;100.00;103111.19;6216443;28;20363;-78
2024/01/08 10:53:18;;;;;;;2.72;1.83;;;;;;;-1.86;100.00;103113.22;6230157;28;20049;-78
2024/01/08 10:56:22;;;;;;;4.25;1.58;;;;;;;-1.86;100.00;103106.38;6230044;28;20346;-78
2024/01/08 10:59:27;;;;;;;3.13;1.67;;;;;;;-1.80;100.00;103103.13;6223354;28;20358;-78
2024/01/08 11:02:30;;;;;;;3.22;1.90;;;;;;;-1.71;100.00;103098.28;6230085;28;20042;-77
2024/01/08 11:05:33;;;;;;;4.63;1.60;;;;;;;-1.70;100.00;103106.91;6229915;28;20049;-78
2024/01/08 11:08:34;;;;;;;4.55;2.10;;;;;;;-1.69;100.00;103103.50;6224416;28;20054;-78
2024/01/08 11:11:38;;;;;;;7.40;1.65;;;;;;;-1.51;100.00;103105.81;6229919;28;20046;-77
2024/01/08 11:14:41;;;;;;;4.50;2.60;;;;;;;-1.51;100.00;103105.81;6230064;28;20055;-77
2024/01/08 11:17:50;;;;;;;6.38;2.10;;;;;;;-1.48;100.00;103096.50;6221061;28;20050;-78
2024/01/08 11:20:52;;;;;;;3.60;1.88;;;;;;;-1.40;100.00;103101.94;6226102;28;20161;-77
2024/01/08 11:23:53;;;;;;;3.88;1.88;;;;;;;-1.21;100.00;103106.88;6208590;28;20050;-78
2024/01/08 11:26:55;;;;;;;4.40;1.88;;;;;;;-1.12;100.00;103108.88;6205201;28;20054;-81
2024/01/08 11:29:58;;;;;;;7.88;1.90;;;;;;;-1.18;100.00;103101.81;6205645;28;20057;-78
2024/01/08 11:33:22;;;;;;;6.03;2.17;;;;;;;-1.16;100.00;103097.59;6204854;28;20057;-78
2024/01/08 11:36:45;;;;;;;4.38;2.30;;;;;;;-1.08;100.00;103096.13;6204682;28;20070;-79
2024/01/08 11:39:50;;;;;;;5.10;2.40;;;;;;;-0.95;100.00;103094.84;6210778;28;20171;-78
2024/01/08 11:42:53;;;;;;;4.03;1.85;;;;;;;-0.86;100.00;103094.25;6221295;28;20054;-78
2024/01/08 11:45:56;;;;;;;5.63;2.33;;;;;;;-0.82;100.00;103088.31;6217945;28;20050;-78
2024/01/08 11:48:57;;;;;;;3.13;1.80;;;;;;;-0.87;100.00;103089.88;6222919;28;20053;-78
2024/01/08 11:52:01;;;;;;;4.03;2.33;;;;;;;-0.81;100.00;103095.25;6217672;28;20052;-79
2024/01/08 11:55:04;;;;;;;5.97;2.38;;;;;;;-0.95;100.00;103089.66;6228648;28;20057;-77
2024/01/08 11:58:06;;;;;;;7.72;2.53;;;;;;;-0.86;100.00;103086.50;6228986;28;20050;-81
2024/01/08 12:01:17;;;;;;;3.53;1.63;;;;;;;-0.82;100.00;103089.22;6225231;28;20049;-79
2024/01/08 12:04:18;;;;;;;7.63;2.50;;;;;;;-0.84;100.00;103090.00;6228838;28;20046;-79
2024/01/08 12:07:21;;;;;;;7.72;2.88;;;;;;;-0.75;100.00;103084.25;6226188;28;20053;-81
2024/01/08 12:10:22;;;;;;;3.70;1.88;;;;;;;-0.64;100.00;103085.44;6212828;28;20069;-81
2024/01/08 12:13:25;;;;;;;6.22;2.28;;;;;;;-0.59;100.00;103091.63;6228613;28;20054;-81
2024/01/08 12:16:28;;;;;;;3.92;1.88;;;;;;;-0.42;100.00;103085.25;6228184;28;20057;-81
2024/01/08 12:19:37;;;;;;;4.00;1.85;;;;;;;-0.40;100.00;103086.19;6205830;28;20046;-81
2024/01/08 12:22:38;;;;;;;2.90;1.77;;;;;;;-0.41;100.00;103092.19;6204063;28;20054;-82
2024/01/08 12:25:39;;;;;;;3.65;1.98;;;;;;;-0.51;100.00;103090.16;6203619;28;20050;-80
2024/01/08 12:28:42;;;;;;;10.07;2.53;;;;;;;-0.49;100.00;103096.25;6206489;28;20050;-81
2024/01/08 12:31:45;;;;;;;7.70;2.20;;;;;;;-0.27;100.00;103093.47;6218354;28;20050;-81
2024/01/08 12:34:46;;;;;;;4.93;1.88;;;;;;;-0.19;100.00;103097.97;6203408;28;20050;-80
2024/01/08 12:37:47;;;;;;;9.27;2.20;;;;;;;-0.44;100.00;103096.38;6203231;28;20057;-80
2024/01/08 12:40:51;;;;;;;5.05;2.17;;;;;;;-0.57;100.00;103090.84;6203880;28;20077;-79
2024/01/08 12:43:52;;;;;;;2.90;1.85;;;;;;;-0.64;100.00;103103.50;6203159;28;20058;-82
2024/01/08 12:46:56;;;;;;;6.22;2.22;;;;;;;-0.76;100.00;103093.69;6201539;28;20363;-81
2024/01/08 12:49:58;;;;;;;6.47;2.28;;;;;;;-0.84;100.00;103090.88;6218710;28;20046;-80
2024/01/08 12:52:59;;;;;;;5.05;1.90;;;;;;;-0.86;100.00;103100.28;6221573;28;20514;-80
2024/01/08 12:56:00;;;;;;;6.25;2.17;;;;;;;-0.78;100.00;103092.75;6206461;28;20049;-81
2024/01/08 12:59:02;;;;;;;4.10;1.92;;;;;;;-0.79;100.00;103102.22;6222427;28;20052;-81
2024/01/08 13:02:05;;;;;;;2.72;1.48;;;;;;;-0.92;100.00;103094.91;6227025;28;20054;-78
2024/01/08 13:05:07;;;;;;;4.43;2.20;;;;;;;-1.00;100.00;103095.47;6206790;28;20050;-81
2024/01/08 13:08:08;;;;;;;2.58;1.50;;;;;;;-0.98;100.00;103104.16;6205731;28;20054;-80
2024/01/08 13:11:10;;;;;;;10.75;2.45;;;;;;;-0.92;100.00;103099.19;6227584;28;20083;-81
2024/01/08 13:14:13;;;;;;;5.65;2.00;;;;;;;-0.90;100.00;103098.44;6227090;28;20140;-80
2024/01/08 13:17:17;;;;;;;3.92;1.95;;;;;;;-0.97;100.00;103103.34;6221999;28;20395;-81
2024/01/08 13:20:18;;;;;;;2.20;1.50;;;;;;;-0.98;100.00;103102.47;6226399;28;20138;-81
2024/01/08 13:23:19;;;;;;;5.18;2.13;;;;;;;-0.92;100.00;103106.94;6210430;28;20053;-81
2024/01/08 13:26:21;;;;;;;8.88;2.55;;;;;;;-1.01;100.00;103102.34;6211069;28;20136;-81
2024/01/08 13:29:22;;;;;;;5.53;2.00;;;;;;;-0.95;100.00;103093.94;6221210;28;20073;-81
2024/01/08 13:32:25;;;;;;;4.57;2.30;;;;;;;-0.94;100.00;103109.47;6206253;28;20137;-81
2024/01/08 13:35:26;;;;;;;8.45;2.05;;;;;;;-0.94;100.00;103104.31;6222245;28;20060;-81
2024/01/08 13:38:28;;;;;;;5.30;1.83;;;;;;;-0.90;100.00;103106.16;6201622;28;20362;-81
2024/01/08 13:41:30;;;;;;;3.00;1.58;;;;;;;-0.92;100.00;103112.97;6219273;28;20045;-80
2024/01/08 13:44:32;;;;;;;2.55;1.80;;;;;;;-0.91;100.00;103113.84;6193858;28;20054;-81
2024/01/08 13:47:34;;;;;;;5.93;2.60;;;;;;;-0.89;100.00;103119.94;6192716;28;20053;-81
2024/01/08 13:50:36;;;;;;;5.85;1.80;;;;;;;-0.98;100.00;103120.53;6191020;28;20050;-81
2024/01/08 13:53:37;;;;;;;7.60;2.45;;;;;;;-0.92;100.00;103122.41;6195174;28;20058;-81
2024/01/08 13:56:39;;;;;;;2.95;1.70;;;;;;;-1.00;100.00;103123.88;6195233;28;20465;-80